sensor_id;sensor_type;location;lat;lon;timestamp;P1;durP1;ratioP1;P2;durP2;ratioP2
56269;SDS011;42176;43.240;27.880;2023-04-21T00:01:15;10.27;;;3.33;;
56269;SDS011;42176;43.240;27.880;2023-04-21T00:03:42;19.90;;;4.68;;
56269;SDS011;42176;43.240;27.880;2023-04-21T00:06:07;11.18;;;4.07;;
56269;SDS011;42176;43.240;27.880;2023-04-21T00:08:33;13.85;;;4.18;;
56269;SDS011;42176;43.240;27.880;2023-04-21T00:11:04;11.35;;;3.50;;
56269;SDS011;42176;43.240;27.880;2023-04-21T00:13:31;8.93;;;4.00;;
56269;SDS011;42176;43.240;27.880;2023-04-21T00:15:57;8.70;;;3.72;;
56269;SDS011;42176;43.240;27.880;2023-04-21T00:18:22;10.98;;;3.55;;
56269;SDS011;42176;43.240;27.880;2023-04-21T00:20:47;9.25;;;4.75;;
56269;SDS011;42176;43.240;27.880;2023-04-21T00:23:13;8.98;;;3.80;;
56269;SDS011;42176;43.240;27.880;2023-04-21T00:25:38;9.38;;;3.65;;
56269;SDS011;42176;43.240;27.880;2023-04-21T00:28:04;14.30;;;3.75;;
56269;SDS011;42176;43.240;27.880;2023-04-21T00:30:30;9.60;;;3.58;;
56269;SDS011;42176;43.240;27.880;2023-04-21T00:32:55;13.77;;;4.18;;
56269;SDS011;42176;43.240;27.880;2023-04-21T00:35:21;11.40;;;4.07;;
56269;SDS011;42176;43.240;27.880;2023-04-21T00:37:46;9.73;;;4.63;;
56269;SDS011;42176;43.240;27.880;2023-04-21T00:42:39;13.75;;;4.15;;
56269;SDS011;42176;43.240;27.880;2023-04-21T00:45:04;8.48;;;2.83;;
56269;SDS011;42176;43.240;27.880;2023-04-21T00:47:30;10.93;;;3.47;;
56269;SDS011;42176;43.240;27.880;2023-04-21T00:49:56;13.13;;;3.85;;
56269;SDS011;42176;43.240;27.880;2023-04-21T00:52:22;18.27;;;3.88;;
56269;SDS011;42176;43.240;27.880;2023-04-21T00:54:48;12.82;;;4.57;;
56269;SDS011;42176;43.240;27.880;2023-04-21T00:57:14;12.02;;;4.30;;
56269;SDS011;42176;43.240;27.880;2023-04-21T00:59:40;8.57;;;3.72;;
56269;SDS011;42176;43.240;27.880;2023-04-21T01:02:07;12.77;;;3.67;;
56269;SDS011;42176;43.240;27.880;2023-04-21T01:04:32;4.70;;;3.13;;
56269;SDS011;42176;43.240;27.880;2023-04-21T01:07:03;11.73;;;3.63;;
56269;SDS011;42176;43.240;27.880;2023-04-21T01:09:29;13.25;;;3.35;;
56269;SDS011;42176;43.240;27.880;2023-04-21T01:12:02;11.65;;;3.35;;
56269;SDS011;42176;43.240;27.880;2023-04-21T01:14:29;9.52;;;3.33;;
56269;SDS011;42176;43.240;27.880;2023-04-21T01:16:56;15.23;;;3.50;;
56269;SDS011;42176;43.240;27.880;2023-04-21T01:19:22;17.70;;;3.85;;
56269;SDS011;42176;43.240;27.880;2023-04-21T01:21:49;13.68;;;3.42;;
56269;SDS011;42176;43.240;27.880;2023-04-21T01:24:18;15.43;;;4.93;;
56269;SDS011;42176;43.240;27.880;2023-04-21T01:26:44;10.82;;;3.72;;
56269;SDS011;42176;43.240;27.880;2023-04-21T01:29:14;12.13;;;3.30;;
56269;SDS011;42176;43.240;27.880;2023-04-21T01:31:40;12.57;;;3.47;;
56269;SDS011;42176;43.240;27.880;2023-04-21T01:34:06;14.57;;;3.42;;
56269;SDS011;42176;43.240;27.880;2023-04-21T01:36:31;17.25;;;4.07;;
56269;SDS011;42176;43.240;27.880;2023-04-21T01:38:57;12.50;;;4.10;;
56269;SDS011;42176;43.240;27.880;2023-04-21T01:41:23;8.32;;;3.95;;
56269;SDS011;42176;43.240;27.880;2023-04-21T01:43:48;14.13;;;5.38;;
56269;SDS011;42176;43.240;27.880;2023-04-21T01:46:13;13.13;;;6.53;;
56269;SDS011;42176;43.240;27.880;2023-04-21T01:48:39;13.20;;;6.15;;
56269;SDS011;42176;43.240;27.880;2023-04-21T01:51:04;5.88;;;3.15;;
56269;SDS011;42176;43.240;27.880;2023-04-21T01:53:30;8.55;;;2.50;;
56269;SDS011;42176;43.240;27.880;2023-04-21T01:55:55;7.03;;;3.58;;
56269;SDS011;42176;43.240;27.880;2023-04-21T01:58:21;21.25;;;4.30;;
56269;SDS011;42176;43.240;27.880;2023-04-21T02:00:46;11.85;;;4.32;;
56269;SDS011;42176;43.240;27.880;2023-04-21T02:03:12;9.25;;;2.78;;
56269;SDS011;42176;43.240;27.880;2023-04-21T02:05:37;15.65;;;3.22;;
56269;SDS011;42176;43.240;27.880;2023-04-21T02:08:03;8.00;;;2.85;;
56269;SDS011;42176;43.240;27.880;2023-04-21T02:10:28;14.15;;;3.10;;
56269;SDS011;42176;43.240;27.880;2023-04-21T02:12:54;11.65;;;3.58;;
56269;SDS011;42176;43.240;27.880;2023-04-21T02:15:19;12.40;;;3.53;;
56269;SDS011;42176;43.240;27.880;2023-04-21T02:17:45;10.20;;;3.20;;
56269;SDS011;42176;43.240;27.880;2023-04-21T02:20:11;11.20;;;3.20;;
56269;SDS011;42176;43.240;27.880;2023-04-21T02:22:37;15.68;;;4.07;;
56269;SDS011;42176;43.240;27.880;2023-04-21T02:25:03;21.10;;;3.85;;
56269;SDS011;42176;43.240;27.880;2023-04-21T02:27:29;10.65;;;3.08;;
56269;SDS011;42176;43.240;27.880;2023-04-21T02:29:55;17.55;;;4.13;;
56269;SDS011;42176;43.240;27.880;2023-04-21T02:32:20;9.30;;;3.72;;
56269;SDS011;42176;43.240;27.880;2023-04-21T02:34:46;16.88;;;4.80;;
56269;SDS011;42176;43.240;27.880;2023-04-21T02:37:11;20.95;;;4.65;;
56269;SDS011;42176;43.240;27.880;2023-04-21T02:39:36;13.20;;;4.32;;
56269;SDS011;42176;43.240;27.880;2023-04-21T02:42:02;8.07;;;3.92;;
56269;SDS011;42176;43.240;27.880;2023-04-21T02:44:27;11.65;;;3.85;;
56269;SDS011;42176;43.240;27.880;2023-04-21T02:46:53;18.77;;;4.55;;
56269;SDS011;42176;43.240;27.880;2023-04-21T02:49:18;9.40;;;3.22;;
56269;SDS011;42176;43.240;27.880;2023-04-21T02:51:44;11.23;;;3.30;;
56269;SDS011;42176;43.240;27.880;2023-04-21T02:54:09;5.68;;;3.05;;
56269;SDS011;42176;43.240;27.880;2023-04-21T02:56:35;13.10;;;3.53;;
56269;SDS011;42176;43.240;27.880;2023-04-21T02:59:00;13.65;;;3.67;;
56269;SDS011;42176;43.240;27.880;2023-04-21T03:01:26;15.82;;;3.95;;
56269;SDS011;42176;43.240;27.880;2023-04-21T03:03:51;16.85;;;4.10;;
56269;SDS011;42176;43.240;27.880;2023-04-21T03:06:16;13.13;;;3.83;;
56269;SDS011;42176;43.240;27.880;2023-04-21T03:08:42;17.75;;;4.00;;
56269;SDS011;42176;43.240;27.880;2023-04-21T03:11:07;20.17;;;4.28;;
56269;SDS011;42176;43.240;27.880;2023-04-21T03:13:33;16.02;;;3.70;;
56269;SDS011;42176;43.240;27.880;2023-04-21T03:15:58;17.27;;;5.03;;
56269;SDS011;42176;43.240;27.880;2023-04-21T03:18:24;30.25;;;4.43;;
56269;SDS011;42176;43.240;27.880;2023-04-21T03:20:49;14.80;;;4.10;;
56269;SDS011;42176;43.240;27.880;2023-04-21T03:23:14;11.90;;;3.38;;
56269;SDS011;42176;43.240;27.880;2023-04-21T03:25:41;15.48;;;3.47;;
56269;SDS011;42176;43.240;27.880;2023-04-21T03:28:06;16.35;;;3.20;;
56269;SDS011;42176;43.240;27.880;2023-04-21T03:30:31;13.10;;;3.38;;
56269;SDS011;42176;43.240;27.880;2023-04-21T03:32:57;24.83;;;5.53;;
56269;SDS011;42176;43.240;27.880;2023-04-21T03:35:23;13.23;;;5.13;;
56269;SDS011;42176;43.240;27.880;2023-04-21T03:37:48;15.07;;;5.20;;
56269;SDS011;42176;43.240;27.880;2023-04-21T03:40:14;11.43;;;4.65;;
56269;SDS011;42176;43.240;27.880;2023-04-21T03:42:40;11.68;;;4.43;;
56269;SDS011;42176;43.240;27.880;2023-04-21T03:45:07;16.08;;;6.25;;
56269;SDS011;42176;43.240;27.880;2023-04-21T03:47:33;16.00;;;4.45;;
56269;SDS011;42176;43.240;27.880;2023-04-21T03:49:59;18.25;;;4.65;;
56269;SDS011;42176;43.240;27.880;2023-04-21T03:52:25;16.55;;;5.70;;
56269;SDS011;42176;43.240;27.880;2023-04-21T03:54:50;17.83;;;5.10;;
56269;SDS011;42176;43.240;27.880;2023-04-21T03:57:16;14.48;;;4.47;;
56269;SDS011;42176;43.240;27.880;2023-04-21T03:59:41;11.35;;;4.93;;
56269;SDS011;42176;43.240;27.880;2023-04-21T04:02:07;13.40;;;5.07;;
56269;SDS011;42176;43.240;27.880;2023-04-21T04:04:33;22.38;;;5.60;;
56269;SDS011;42176;43.240;27.880;2023-04-21T04:06:58;22.98;;;5.15;;
56269;SDS011;42176;43.240;27.880;2023-04-21T04:09:24;20.73;;;5.43;;
56269;SDS011;42176;43.240;27.880;2023-04-21T04:11:50;16.48;;;5.32;;
56269;SDS011;42176;43.240;27.880;2023-04-21T04:14:15;16.13;;;5.43;;
56269;SDS011;42176;43.240;27.880;2023-04-21T04:16:41;22.88;;;6.32;;
56269;SDS011;42176;43.240;27.880;2023-04-21T04:19:06;17.15;;;5.97;;
56269;SDS011;42176;43.240;27.880;2023-04-21T04:21:32;23.33;;;5.47;;
56269;SDS011;42176;43.240;27.880;2023-04-21T04:23:58;16.10;;;4.78;;
56269;SDS011;42176;43.240;27.880;2023-04-21T04:26:24;18.88;;;5.22;;
56269;SDS011;42176;43.240;27.880;2023-04-21T04:28:53;16.83;;;5.32;;
56269;SDS011;42176;43.240;27.880;2023-04-21T04:31:20;15.90;;;4.97;;
56269;SDS011;42176;43.240;27.880;2023-04-21T04:33:49;16.55;;;5.20;;
56269;SDS011;42176;43.240;27.880;2023-04-21T04:36:15;17.77;;;5.13;;
56269;SDS011;42176;43.240;27.880;2023-04-21T04:38:41;11.77;;;4.63;;
56269;SDS011;42176;43.240;27.880;2023-04-21T04:41:06;20.63;;;5.03;;
56269;SDS011;42176;43.240;27.880;2023-04-21T04:43:33;20.80;;;4.75;;
56269;SDS011;42176;43.240;27.880;2023-04-21T04:46:01;18.38;;;6.22;;
56269;SDS011;42176;43.240;27.880;2023-04-21T04:48:27;17.15;;;5.15;;
56269;SDS011;42176;43.240;27.880;2023-04-21T04:50:53;26.30;;;5.78;;
56269;SDS011;42176;43.240;27.880;2023-04-21T04:53:18;28.33;;;5.22;;
56269;SDS011;42176;43.240;27.880;2023-04-21T04:55:43;20.25;;;5.30;;
56269;SDS011;42176;43.240;27.880;2023-04-21T04:58:10;21.35;;;5.20;;
56269;SDS011;42176;43.240;27.880;2023-04-21T05:00:35;24.55;;;4.75;;
56269;SDS011;42176;43.240;27.880;2023-04-21T05:03:01;18.55;;;3.95;;
56269;SDS011;42176;43.240;27.880;2023-04-21T05:05:27;14.90;;;4.43;;
56269;SDS011;42176;43.240;27.880;2023-04-21T05:07:52;14.27;;;5.30;;
56269;SDS011;42176;43.240;27.880;2023-04-21T05:10:18;17.15;;;4.45;;
56269;SDS011;42176;43.240;27.880;2023-04-21T05:12:43;18.13;;;5.40;;
56269;SDS011;42176;43.240;27.880;2023-04-21T05:15:08;24.90;;;6.72;;
56269;SDS011;42176;43.240;27.880;2023-04-21T05:17:35;29.02;;;6.78;;
56269;SDS011;42176;43.240;27.880;2023-04-21T05:20:00;25.00;;;6.75;;
56269;SDS011;42176;43.240;27.880;2023-04-21T05:22:25;25.95;;;6.47;;
56269;SDS011;42176;43.240;27.880;2023-04-21T05:24:51;18.33;;;5.82;;
56269;SDS011;42176;43.240;27.880;2023-04-21T05:27:17;25.98;;;6.80;;
56269;SDS011;42176;43.240;27.880;2023-04-21T05:29:42;24.92;;;5.97;;
56269;SDS011;42176;43.240;27.880;2023-04-21T05:32:08;17.40;;;5.70;;
56269;SDS011;42176;43.240;27.880;2023-04-21T05:34:36;13.82;;;5.90;;
56269;SDS011;42176;43.240;27.880;2023-04-21T05:37:01;15.02;;;4.85;;
56269;SDS011;42176;43.240;27.880;2023-04-21T05:39:27;20.55;;;5.85;;
56269;SDS011;42176;43.240;27.880;2023-04-21T05:41:52;10.82;;;5.43;;
56269;SDS011;42176;43.240;27.880;2023-04-21T05:44:18;23.80;;;6.53;;
56269;SDS011;42176;43.240;27.880;2023-04-21T05:46:43;18.35;;;6.22;;
56269;SDS011;42176;43.240;27.880;2023-04-21T05:49:09;20.15;;;6.22;;
56269;SDS011;42176;43.240;27.880;2023-04-21T05:51:34;16.83;;;6.70;;
56269;SDS011;42176;43.240;27.880;2023-04-21T05:54:00;16.90;;;6.60;;
56269;SDS011;42176;43.240;27.880;2023-04-21T05:56:25;19.65;;;7.00;;
56269;SDS011;42176;43.240;27.880;2023-04-21T05:58:50;17.48;;;5.72;;
56269;SDS011;42176;43.240;27.880;2023-04-21T06:01:16;18.48;;;7.25;;
56269;SDS011;42176;43.240;27.880;2023-04-21T06:03:41;24.10;;;6.28;;
56269;SDS011;42176;43.240;27.880;2023-04-21T06:06:07;20.13;;;6.05;;
56269;SDS011;42176;43.240;27.880;2023-04-21T06:08:34;16.00;;;5.85;;
56269;SDS011;42176;43.240;27.880;2023-04-21T06:10:59;17.08;;;5.50;;
56269;SDS011;42176;43.240;27.880;2023-04-21T06:13:25;13.98;;;3.83;;
56269;SDS011;42176;43.240;27.880;2023-04-21T06:15:52;8.82;;;3.20;;
56269;SDS011;42176;43.240;27.880;2023-04-21T06:18:20;7.43;;;2.95;;
56269;SDS011;42176;43.240;27.880;2023-04-21T06:20:49;4.82;;;2.17;;
56269;SDS011;42176;43.240;27.880;2023-04-21T06:23:15;2.22;;;1.35;;
56269;SDS011;42176;43.240;27.880;2023-04-21T06:25:41;4.75;;;1.42;;
56269;SDS011;42176;43.240;27.880;2023-04-21T06:28:06;2.55;;;1.23;;
56269;SDS011;42176;43.240;27.880;2023-04-21T06:30:32;1.92;;;1.40;;
56269;SDS011;42176;43.240;27.880;2023-04-21T06:32:57;5.45;;;1.20;;
56269;SDS011;42176;43.240;27.880;2023-04-21T06:35:23;2.22;;;0.95;;
56269;SDS011;42176;43.240;27.880;2023-04-21T06:37:48;3.90;;;1.13;;
56269;SDS011;42176;43.240;27.880;2023-04-21T06:40:14;9.77;;;1.13;;
56269;SDS011;42176;43.240;27.880;2023-04-21T06:42:42;1.80;;;1.02;;
56269;SDS011;42176;43.240;27.880;2023-04-21T06:45:08;1.33;;;1.00;;
56269;SDS011;42176;43.240;27.880;2023-04-21T06:47:34;2.63;;;1.35;;
56269;SDS011;42176;43.240;27.880;2023-04-21T06:50:00;3.65;;;1.10;;
56269;SDS011;42176;43.240;27.880;2023-04-21T06:52:25;5.90;;;1.10;;
56269;SDS011;42176;43.240;27.880;2023-04-21T06:54:51;3.67;;;1.40;;
56269;SDS011;42176;43.240;27.880;2023-04-21T06:57:16;4.85;;;1.55;;
56269;SDS011;42176;43.240;27.880;2023-04-21T06:59:42;2.47;;;1.42;;
56269;SDS011;42176;43.240;27.880;2023-04-21T07:02:07;2.75;;;1.27;;
56269;SDS011;42176;43.240;27.880;2023-04-21T07:04:33;6.57;;;1.50;;
56269;SDS011;42176;43.240;27.880;2023-04-21T07:06:58;3.33;;;0.80;;
56269;SDS011;42176;43.240;27.880;2023-04-21T07:09:24;2.60;;;1.42;;
56269;SDS011;42176;43.240;27.880;2023-04-21T07:11:49;1.95;;;1.30;;
56269;SDS011;42176;43.240;27.880;2023-04-21T07:14:15;3.25;;;1.40;;
56269;SDS011;42176;43.240;27.880;2023-04-21T07:16:40;2.90;;;1.23;;
56269;SDS011;42176;43.240;27.880;2023-04-21T07:19:06;9.77;;;1.30;;
56269;SDS011;42176;43.240;27.880;2023-04-21T07:21:31;4.57;;;1.25;;
56269;SDS011;42176;43.240;27.880;2023-04-21T07:24:00;9.07;;;1.13;;
56269;SDS011;42176;43.240;27.880;2023-04-21T07:26:26;4.13;;;1.65;;
56269;SDS011;42176;43.240;27.880;2023-04-21T07:28:51;5.10;;;1.52;;
56269;SDS011;42176;43.240;27.880;2023-04-21T07:31:17;3.65;;;1.30;;
56269;SDS011;42176;43.240;27.880;2023-04-21T07:33:42;9.27;;;1.52;;
56269;SDS011;42176;43.240;27.880;2023-04-21T07:36:08;6.93;;;1.38;;
56269;SDS011;42176;43.240;27.880;2023-04-21T07:38:33;5.78;;;2.10;;
56269;SDS011;42176;43.240;27.880;2023-04-21T07:40:59;3.70;;;1.08;;
56269;SDS011;42176;43.240;27.880;2023-04-21T07:43:25;4.63;;;1.52;;
56269;SDS011;42176;43.240;27.880;2023-04-21T07:45:51;3.47;;;1.45;;
56269;SDS011;42176;43.240;27.880;2023-04-21T07:48:16;3.65;;;1.60;;
56269;SDS011;42176;43.240;27.880;2023-04-21T07:50:42;7.50;;;1.58;;
56269;SDS011;42176;43.240;27.880;2023-04-21T07:53:07;3.22;;;1.58;;
56269;SDS011;42176;43.240;27.880;2023-04-21T07:55:33;4.05;;;2.00;;
56269;SDS011;42176;43.240;27.880;2023-04-21T07:58:01;8.63;;;2.45;;
56269;SDS011;42176;43.240;27.880;2023-04-21T08:00:27;8.45;;;1.77;;
56269;SDS011;42176;43.240;27.880;2023-04-21T08:02:53;7.10;;;2.38;;
56269;SDS011;42176;43.240;27.880;2023-04-21T08:05:18;5.70;;;2.08;;
56269;SDS011;42176;43.240;27.880;2023-04-21T08:07:44;16.25;;;1.75;;
56269;SDS011;42176;43.240;27.880;2023-04-21T08:10:09;7.22;;;1.60;;
56269;SDS011;42176;43.240;27.880;2023-04-21T08:12:35;10.30;;;2.45;;
56269;SDS011;42176;43.240;27.880;2023-04-21T08:15:00;12.15;;;1.92;;
56269;SDS011;42176;43.240;27.880;2023-04-21T08:17:29;6.85;;;2.28;;
56269;SDS011;42176;43.240;27.880;2023-04-21T08:19:55;4.82;;;1.55;;
56269;SDS011;42176;43.240;27.880;2023-04-21T08:22:20;12.32;;;2.33;;
56269;SDS011;42176;43.240;27.880;2023-04-21T08:24:46;7.25;;;1.88;;
56269;SDS011;42176;43.240;27.880;2023-04-21T08:27:12;5.82;;;2.20;;
56269;SDS011;42176;43.240;27.880;2023-04-21T08:29:37;13.38;;;3.03;;
56269;SDS011;42176;43.240;27.880;2023-04-21T08:32:03;14.35;;;2.90;;
56269;SDS011;42176;43.240;27.880;2023-04-21T08:34:28;8.60;;;1.58;;
56269;SDS011;42176;43.240;27.880;2023-04-21T08:36:54;9.75;;;2.25;;
56269;SDS011;42176;43.240;27.880;2023-04-21T08:39:19;9.15;;;2.60;;
56269;SDS011;42176;43.240;27.880;2023-04-21T08:41:45;8.35;;;2.13;;
56269;SDS011;42176;43.240;27.880;2023-04-21T08:44:11;6.40;;;2.50;;
56269;SDS011;42176;43.240;27.880;2023-04-21T08:46:37;8.77;;;2.53;;
56269;SDS011;42176;43.240;27.880;2023-04-21T08:49:04;15.45;;;2.08;;
56269;SDS011;42176;43.240;27.880;2023-04-21T08:51:29;6.93;;;1.80;;
56269;SDS011;42176;43.240;27.880;2023-04-21T08:53:56;7.28;;;2.03;;
56269;SDS011;42176;43.240;27.880;2023-04-21T08:56:25;10.55;;;2.30;;
56269;SDS011;42176;43.240;27.880;2023-04-21T08:58:51;4.35;;;1.92;;
56269;SDS011;42176;43.240;27.880;2023-04-21T09:01:17;10.75;;;2.30;;
56269;SDS011;42176;43.240;27.880;2023-04-21T09:03:42;4.10;;;2.17;;
56269;SDS011;42176;43.240;27.880;2023-04-21T09:06:08;13.85;;;2.47;;
56269;SDS011;42176;43.240;27.880;2023-04-21T09:08:41;4.32;;;1.73;;
56269;SDS011;42176;43.240;27.880;2023-04-21T09:11:07;8.05;;;2.33;;
56269;SDS011;42176;43.240;27.880;2023-04-21T09:13:38;8.48;;;2.10;;
56269;SDS011;42176;43.240;27.880;2023-04-21T09:16:04;6.07;;;1.80;;
56269;SDS011;42176;43.240;27.880;2023-04-21T09:18:40;5.97;;;1.80;;
56269;SDS011;42176;43.240;27.880;2023-04-21T09:21:09;10.38;;;3.25;;
56269;SDS011;42176;43.240;27.880;2023-04-21T09:23:43;12.30;;;2.00;;
56269;SDS011;42176;43.240;27.880;2023-04-21T09:26:13;6.82;;;2.33;;
56269;SDS011;42176;43.240;27.880;2023-04-21T09:28:40;15.25;;;2.17;;
56269;SDS011;42176;43.240;27.880;2023-04-21T09:31:20;11.05;;;2.40;;
56269;SDS011;42176;43.240;27.880;2023-04-21T09:33:55;8.90;;;2.45;;
56269;SDS011;42176;43.240;27.880;2023-04-21T09:36:23;8.13;;;2.17;;
56269;SDS011;42176;43.240;27.880;2023-04-21T09:41:18;4.43;;;1.27;;
56269;SDS011;42176;43.240;27.880;2023-04-21T09:43:44;8.82;;;2.28;;
56269;SDS011;42176;43.240;27.880;2023-04-21T09:46:10;7.55;;;1.45;;
56269;SDS011;42176;43.240;27.880;2023-04-21T09:48:39;10.05;;;1.75;;
56269;SDS011;42176;43.240;27.880;2023-04-21T09:51:13;11.30;;;2.35;;
56269;SDS011;42176;43.240;27.880;2023-04-21T09:53:40;12.93;;;2.60;;
56269;SDS011;42176;43.240;27.880;2023-04-21T09:56:10;9.85;;;2.03;;
56269;SDS011;42176;43.240;27.880;2023-04-21T09:58:43;10.00;;;2.85;;
56269;SDS011;42176;43.240;27.880;2023-04-21T10:01:12;5.97;;;2.17;;
56269;SDS011;42176;43.240;27.880;2023-04-21T10:03:38;7.90;;;1.90;;
56269;SDS011;42176;43.240;27.880;2023-04-21T10:06:07;8.25;;;1.35;;
56269;SDS011;42176;43.240;27.880;2023-04-21T10:08:33;5.68;;;2.28;;
56269;SDS011;42176;43.240;27.880;2023-04-21T10:11:00;6.43;;;1.88;;
56269;SDS011;42176;43.240;27.880;2023-04-21T10:13:26;5.63;;;1.80;;
56269;SDS011;42176;43.240;27.880;2023-04-21T10:16:02;16.52;;;3.30;;
56269;SDS011;42176;43.240;27.880;2023-04-21T10:18:28;7.43;;;1.42;;
56269;SDS011;42176;43.240;27.880;2023-04-21T10:23:38;10.60;;;2.17;;
56269;SDS011;42176;43.240;27.880;2023-04-21T10:31:21;9.15;;;2.75;;
56269;SDS011;42176;43.240;27.880;2023-04-21T10:41:57;10.07;;;2.70;;
56269;SDS011;42176;43.240;27.880;2023-04-21T10:49:54;9.30;;;2.50;;
56269;SDS011;42176;43.240;27.880;2023-04-21T10:52:20;3.92;;;1.98;;
56269;SDS011;42176;43.240;27.880;2023-04-21T10:57:18;10.20;;;2.08;;
56269;SDS011;42176;43.240;27.880;2023-04-21T10:59:45;9.75;;;2.58;;
56269;SDS011;42176;43.240;27.880;2023-04-21T11:02:12;5.00;;;1.45;;
56269;SDS011;42176;43.240;27.880;2023-04-21T11:04:39;11.05;;;1.95;;
56269;SDS011;42176;43.240;27.880;2023-04-21T11:07:09;10.50;;;1.77;;
56269;SDS011;42176;43.240;27.880;2023-04-21T11:09:39;8.65;;;1.90;;
56269;SDS011;42176;43.240;27.880;2023-04-21T11:12:07;7.90;;;1.98;;
56269;SDS011;42176;43.240;27.880;2023-04-21T11:14:42;6.03;;;2.08;;
56269;SDS011;42176;43.240;27.880;2023-04-21T11:17:12;9.15;;;2.42;;
56269;SDS011;42176;43.240;27.880;2023-04-21T11:19:44;8.90;;;2.05;;
56269;SDS011;42176;43.240;27.880;2023-04-21T11:22:20;6.97;;;1.75;;
56269;SDS011;42176;43.240;27.880;2023-04-21T11:24:47;12.52;;;1.80;;
56269;SDS011;42176;43.240;27.880;2023-04-21T11:27:15;7.53;;;2.10;;
56269;SDS011;42176;43.240;27.880;2023-04-21T11:29:43;19.92;;;2.13;;
56269;SDS011;42176;43.240;27.880;2023-04-21T11:32:10;1.85;;;1.52;;
56269;SDS011;42176;43.240;27.880;2023-04-21T11:34:36;12.70;;;2.08;;
56269;SDS011;42176;43.240;27.880;2023-04-21T11:37:02;7.00;;;1.83;;
56269;SDS011;42176;43.240;27.880;2023-04-21T11:39:30;9.48;;;2.22;;
56269;SDS011;42176;43.240;27.880;2023-04-21T11:41:56;11.63;;;1.48;;
56269;SDS011;42176;43.240;27.880;2023-04-21T11:44:40;6.45;;;1.83;;
56269;SDS011;42176;43.240;27.880;2023-04-21T11:47:14;4.68;;;1.63;;
56269;SDS011;42176;43.240;27.880;2023-04-21T11:49:48;3.35;;;1.85;;
56269;SDS011;42176;43.240;27.880;2023-04-21T11:52:32;10.70;;;2.50;;
56269;SDS011;42176;43.240;27.880;2023-04-21T11:55:11;3.65;;;1.70;;
56269;SDS011;42176;43.240;27.880;2023-04-21T11:57:40;11.15;;;1.77;;
56269;SDS011;42176;43.240;27.880;2023-04-21T12:00:07;8.20;;;2.00;;
56269;SDS011;42176;43.240;27.880;2023-04-21T12:02:35;2.22;;;1.10;;
56269;SDS011;42176;43.240;27.880;2023-04-21T12:07:30;5.50;;;1.63;;
56269;SDS011;42176;43.240;27.880;2023-04-21T12:09:56;6.10;;;1.27;;
56269;SDS011;42176;43.240;27.880;2023-04-21T12:12:24;9.35;;;1.48;;
56269;SDS011;42176;43.240;27.880;2023-04-21T12:14:50;3.63;;;1.10;;
56269;SDS011;42176;43.240;27.880;2023-04-21T12:17:17;3.22;;;1.45;;
56269;SDS011;42176;43.240;27.880;2023-04-21T12:19:42;6.18;;;1.42;;
56269;SDS011;42176;43.240;27.880;2023-04-21T12:22:09;2.25;;;1.75;;
56269;SDS011;42176;43.240;27.880;2023-04-21T12:24:44;8.98;;;1.50;;
56269;SDS011;42176;43.240;27.880;2023-04-21T12:27:10;5.00;;;1.88;;
56269;SDS011;42176;43.240;27.880;2023-04-21T12:29:35;6.20;;;1.88;;
56269;SDS011;42176;43.240;27.880;2023-04-21T12:32:05;6.20;;;1.80;;
56269;SDS011;42176;43.240;27.880;2023-04-21T12:34:31;8.32;;;1.85;;
56269;SDS011;42176;43.240;27.880;2023-04-21T12:37:00;4.97;;;1.92;;
56269;SDS011;42176;43.240;27.880;2023-04-21T12:39:26;6.88;;;2.22;;
56269;SDS011;42176;43.240;27.880;2023-04-21T12:41:51;4.68;;;1.27;;
56269;SDS011;42176;43.240;27.880;2023-04-21T12:44:17;7.00;;;1.88;;
56269;SDS011;42176;43.240;27.880;2023-04-21T12:46:42;5.70;;;1.52;;
56269;SDS011;42176;43.240;27.880;2023-04-21T12:49:08;7.65;;;1.20;;
56269;SDS011;42176;43.240;27.880;2023-04-21T12:51:35;4.53;;;1.45;;
56269;SDS011;42176;43.240;27.880;2023-04-21T12:54:00;6.82;;;1.85;;
56269;SDS011;42176;43.240;27.880;2023-04-21T12:56:26;3.03;;;1.40;;
56269;SDS011;42176;43.240;27.880;2023-04-21T12:58:52;3.17;;;1.77;;
56269;SDS011;42176;43.240;27.880;2023-04-21T13:01:19;2.55;;;1.70;;
56269;SDS011;42176;43.240;27.880;2023-04-21T13:03:46;5.30;;;1.73;;
56269;SDS011;42176;43.240;27.880;2023-04-21T13:06:11;8.65;;;1.77;;
56269;SDS011;42176;43.240;27.880;2023-04-21T13:08:37;2.75;;;1.27;;
56269;SDS011;42176;43.240;27.880;2023-04-21T13:11:02;4.85;;;1.40;;
56269;SDS011;42176;43.240;27.880;2023-04-21T13:13:28;8.02;;;1.80;;
56269;SDS011;42176;43.240;27.880;2023-04-21T13:15:53;8.43;;;1.77;;
56269;SDS011;42176;43.240;27.880;2023-04-21T13:18:19;12.80;;;2.30;;
56269;SDS011;42176;43.240;27.880;2023-04-21T13:20:45;5.70;;;1.98;;
56269;SDS011;42176;43.240;27.880;2023-04-21T13:23:11;8.30;;;2.70;;
56269;SDS011;42176;43.240;27.880;2023-04-21T13:25:38;5.30;;;1.20;;
56269;SDS011;42176;43.240;27.880;2023-04-21T13:28:04;4.40;;;2.13;;
56269;SDS011;42176;43.240;27.880;2023-04-21T13:30:30;4.30;;;1.65;;
56269;SDS011;42176;43.240;27.880;2023-04-21T13:32:56;7.22;;;2.00;;
56269;SDS011;42176;43.240;27.880;2023-04-21T13:35:21;14.07;;;1.95;;
56269;SDS011;42176;43.240;27.880;2023-04-21T13:37:47;9.60;;;1.95;;
56269;SDS011;42176;43.240;27.880;2023-04-21T13:40:13;11.95;;;2.17;;
56269;SDS011;42176;43.240;27.880;2023-04-21T13:42:38;4.70;;;1.60;;
56269;SDS011;42176;43.240;27.880;2023-04-21T13:45:04;8.40;;;2.00;;
56269;SDS011;42176;43.240;27.880;2023-04-21T13:47:31;4.97;;;2.10;;
56269;SDS011;42176;43.240;27.880;2023-04-21T13:49:57;4.28;;;1.85;;
56269;SDS011;42176;43.240;27.880;2023-04-21T13:52:22;6.45;;;1.63;;
56269;SDS011;42176;43.240;27.880;2023-04-21T13:54:49;8.80;;;2.38;;
56269;SDS011;42176;43.240;27.880;2023-04-21T13:57:16;11.63;;;3.10;;
56269;SDS011;42176;43.240;27.880;2023-04-21T13:59:41;4.22;;;1.88;;
56269;SDS011;42176;43.240;27.880;2023-04-21T14:02:07;5.20;;;2.38;;
56269;SDS011;42176;43.240;27.880;2023-04-21T14:04:32;6.15;;;1.52;;
56269;SDS011;42176;43.240;27.880;2023-04-21T14:06:58;6.68;;;2.17;;
56269;SDS011;42176;43.240;27.880;2023-04-21T14:09:23;7.68;;;1.48;;
56269;SDS011;42176;43.240;27.880;2023-04-21T14:11:49;7.00;;;1.95;;
56269;SDS011;42176;43.240;27.880;2023-04-21T14:14:15;7.13;;;1.73;;
56269;SDS011;42176;43.240;27.880;2023-04-21T14:16:41;8.10;;;1.85;;
56269;SDS011;42176;43.240;27.880;2023-04-21T14:19:06;4.55;;;1.40;;
56269;SDS011;42176;43.240;27.880;2023-04-21T14:21:32;4.63;;;1.60;;
56269;SDS011;42176;43.240;27.880;2023-04-21T14:23:57;7.97;;;1.73;;
56269;SDS011;42176;43.240;27.880;2023-04-21T14:26:23;3.53;;;2.58;;
56269;SDS011;42176;43.240;27.880;2023-04-21T14:28:48;15.25;;;2.28;;
56269;SDS011;42176;43.240;27.880;2023-04-21T14:31:14;8.05;;;2.70;;
56269;SDS011;42176;43.240;27.880;2023-04-21T14:33:40;5.97;;;2.08;;
56269;SDS011;42176;43.240;27.880;2023-04-21T14:36:06;6.22;;;1.73;;
56269;SDS011;42176;43.240;27.880;2023-04-21T14:38:34;8.45;;;2.40;;
56269;SDS011;42176;43.240;27.880;2023-04-21T14:40:59;7.53;;;1.90;;
56269;SDS011;42176;43.240;27.880;2023-04-21T14:43:25;4.05;;;1.92;;
56269;SDS011;42176;43.240;27.880;2023-04-21T14:45:51;4.15;;;1.60;;
56269;SDS011;42176;43.240;27.880;2023-04-21T14:48:16;6.40;;;1.63;;
56269;SDS011;42176;43.240;27.880;2023-04-21T14:50:42;20.75;;;2.83;;
56269;SDS011;42176;43.240;27.880;2023-04-21T14:53:07;12.15;;;2.03;;
56269;SDS011;42176;43.240;27.880;2023-04-21T14:55:33;4.55;;;2.17;;